Time;durP1;ratioP1;P1;durP2;ratioP2;P2;SDS_P1;SDS_P2;PMS_P1;PMS_P2;Temp;Humidity;BMP_temperature;BMP_pressure;BME280_temperature;BME280_humidity;BME280_pressure;Samples;Min_cycle;Max_cycle;Signal;HPM_P1;HPM_P2
2023/02/11 00:01:50;;;;;;;36.20;18.55;;;7.90;99.90;;;;;;5033143;28;20079;-70
2023/02/11 00:04:15;;;;;;;35.45;16.15;;;7.80;99.90;;;;;;5029211;28;20454;-70
2023/02/11 00:06:41;;;;;;;32.85;16.83;;;7.80;99.90;;;;;;5029146;28;20036;-70
2023/02/11 00:09:07;;;;;;;28.45;15.25;;;7.70;99.90;;;;;;5031210;28;20033;-70
2023/02/11 00:11:33;;;;;;;32.85;15.95;;;7.80;99.90;;;;;;5028677;28;20032;-69
2023/02/11 00:14:02;;;;;;;36.75;15.82;;;7.80;99.90;;;;;;5030909;28;20041;-70
2023/02/11 00:16:29;;;;;;;37.92;16.27;;;7.70;99.90;;;;;;5027592;28;20061;-70
2023/02/11 00:18:55;;;;;;;31.38;15.10;;;7.60;99.90;;;;;;5026005;28;20045;-69
2023/02/11 00:21:23;;;;;;;29.42;14.25;;;7.60;99.90;;;;;;5027178;28;20708;-70
2023/02/11 00:23:49;;;;;;;33.80;15.32;;;7.60;99.90;;;;;;5029535;28;20083;-69
2023/02/11 00:26:23;;;;;;;25.67;14.82;;;7.60;99.90;;;;;;5030326;28;20037;-70
2023/02/11 00:28:49;;;;;;;35.15;15.43;;;7.70;99.90;;;;;;5030357;28;20029;-69
2023/02/11 00:31:16;;;;;;;29.25;15.20;;;7.70;99.90;;;;;;5030405;28;20064;-69
2023/02/11 00:33:43;;;;;;;37.03;16.55;;;7.70;99.90;;;;;;5031076;28;20037;-69
2023/02/11 00:36:15;;;;;;;30.08;14.60;;;7.70;99.90;;;;;;5030927;28;20051;-69
2023/02/11 00:38:45;;;;;;;30.35;14.30;;;7.60;99.90;;;;;;5029879;28;20103;-69
2023/02/11 00:41:12;;;;;;;29.00;13.27;;;7.60;99.90;;;;;;5029125;28;20017;-70
2023/02/11 00:43:38;;;;;;;24.30;13.50;;;7.60;99.90;;;;;;5029693;28;20029;-70
2023/02/11 00:46:04;;;;;;;26.40;13.43;;;7.60;99.90;;;;;;5029842;28;20025;-69
2023/02/11 00:48:29;;;;;;;28.70;14.10;;;7.70;99.90;;;;;;5029838;28;20044;-70
2023/02/11 00:50:55;;;;;;;31.10;13.52;;;7.60;99.90;;;;;;5029192;28;20018;-69
2023/02/11 00:53:21;;;;;;;26.70;13.77;;;7.60;99.90;;;;;;5026801;28;20477;-70
2023/02/11 00:55:46;;;;;;;32.22;14.45;;;7.60;99.90;;;;;;5030004;28;20034;-69
2023/02/11 00:58:12;;;;;;;30.23;12.52;;;7.60;99.90;;;;;;5030143;28;20041;-69
2023/02/11 01:00:38;;;;;;;26.08;12.82;;;7.50;99.90;;;;;;5030057;28;20378;-70
2023/02/11 01:03:03;;;;;;;30.80;12.98;;;7.60;99.90;;;;;;5032382;28;20033;-69
2023/02/11 01:05:29;;;;;;;35.63;13.45;;;7.50;99.90;;;;;;5030499;28;20393;-70
2023/02/11 01:07:54;;;;;;;26.63;12.85;;;7.50;99.90;;;;;;5029420;28;20115;-70
2023/02/11 01:10:20;;;;;;;23.65;12.45;;;7.50;99.90;;;;;;5026111;28;20104;-70
2023/02/11 01:12:46;;;;;;;25.42;12.60;;;7.40;99.90;;;;;;5029684;28;20034;-70
2023/02/11 01:15:15;;;;;;;28.92;12.73;;;7.50;99.90;;;;;;5027885;28;20025;-70
2023/02/11 01:17:41;;;;;;;26.88;12.35;;;7.60;99.90;;;;;;5029278;28;20084;-69
2023/02/11 01:20:11;;;;;;;24.00;11.65;;;7.50;99.90;;;;;;5035163;28;20535;-70
2023/02/11 01:22:38;;;;;;;32.20;12.75;;;7.50;99.90;;;;;;5033124;28;20033;-70
2023/02/11 01:25:05;;;;;;;24.77;11.05;;;7.40;99.90;;;;;;5032195;28;20021;-71
2023/02/11 01:27:30;;;;;;;28.00;11.60;;;7.50;99.90;;;;;;5035251;28;20025;-69
2023/02/11 01:29:56;;;;;;;26.48;11.52;;;7.50;99.90;;;;;;5032899;28;20027;-70
2023/02/11 01:32:21;;;;;;;22.35;11.75;;;7.50;99.90;;;;;;5031843;28;20025;-70
2023/02/11 01:34:47;;;;;;;27.63;11.45;;;7.50;99.90;;;;;;5029934;28;20113;-71
2023/02/11 01:37:13;;;;;;;25.45;11.00;;;7.50;99.90;;;;;;5032229;28;20108;-70
2023/02/11 01:39:38;;;;;;;26.40;10.60;;;7.50;99.90;;;;;;5033180;28;20029;-70
2023/02/11 01:42:04;;;;;;;27.67;10.40;;;7.60;99.90;;;;;;5032882;28;20101;-69
2023/02/11 01:44:34;;;;;;;25.50;10.90;;;7.60;99.90;;;;;;5031199;28;20037;-70
2023/02/11 01:47:03;;;;;;;27.50;11.00;;;7.60;99.90;;;;;;5034391;28;20537;-70
2023/02/11 01:49:42;;;;;;;29.92;10.60;;;7.70;99.90;;;;;;5036395;28;20067;-70
2023/02/11 01:52:18;;;;;;;25.50;11.30;;;7.70;99.90;;;;;;5035206;28;20021;-70
2023/02/11 01:57:37;;;;;;;24.08;10.57;;;7.60;99.90;;;;;;5033253;28;20037;-70
2023/02/11 02:00:11;;;;;;;22.08;11.52;;;7.70;99.90;;;;;;5036867;28;20474;-69
2023/02/11 02:03:03;;;;;;;23.75;10.70;;;7.70;99.90;;;;;;5035814;28;20030;-70
2023/02/11 02:05:56;;;;;;;30.57;11.13;;;7.70;99.90;;;;;;5033319;28;20029;-71
2023/02/11 02:08:31;;;;;;;20.88;10.27;;;7.60;99.90;;;;;;5043513;28;20388;-70
2023/02/11 02:10:59;;;;;;;28.95;11.05;;;7.70;99.90;;;;;;5037601;28;20079;-70
2023/02/11 02:13:27;;;;;;;29.23;11.00;;;7.60;99.90;;;;;;5043094;28;20058;-70
2023/02/11 02:15:56;;;;;;;20.55;10.02;;;7.60;99.90;;;;;;5041609;28;20106;-69
2023/02/11 02:19:15;;;;;;;21.30;10.15;;;7.70;99.90;;;;;;5046513;28;20496;-69
2023/02/11 02:22:05;;;;;;;26.70;10.75;;;7.70;99.90;;;;;;5034540;28;20147;-70
2023/02/11 02:25:02;;;;;;;24.70;9.98;;;7.70;99.90;;;;;;5040117;28;20033;-70
2023/02/11 02:27:40;;;;;;;23.67;10.02;;;7.80;99.90;;;;;;5045093;28;20108;-69
2023/02/11 02:30:18;;;;;;;24.40;11.45;;;7.70;99.90;;;;;;5039224;28;20032;-69
2023/02/11 02:32:52;;;;;;;23.42;11.15;;;7.80;99.90;;;;;;5050310;28;20037;-69
2023/02/11 02:35:18;;;;;;;20.40;10.27;;;7.80;99.90;;;;;;5042340;28;20032;-69
2023/02/11 02:37:49;;;;;;;23.27;10.05;;;7.70;99.90;;;;;;5055075;28;20033;-70
2023/02/11 02:40:20;;;;;;;20.98;10.82;;;7.70;99.90;;;;;;5042689;28;20025;-70
2023/02/11 02:42:46;;;;;;;22.15;10.07;;;7.70;99.90;;;;;;5045656;28;20029;-70
2023/02/11 02:45:13;;;;;;;27.65;10.55;;;7.80;99.90;;;;;;5044371;28;20105;-70
2023/02/11 02:47:39;;;;;;;21.75;10.38;;;7.80;99.90;;;;;;5049274;28;20484;-70
2023/02/11 02:50:06;;;;;;;23.20;10.75;;;7.70;99.90;;;;;;5046561;28;20123;-70
2023/02/11 02:52:45;;;;;;;30.05;11.25;;;7.70;99.90;;;;;;5040394;28;20022;-70
2023/02/11 02:55:21;;;;;;;23.45;9.60;;;7.60;99.90;;;;;;5035064;28;20033;-70
2023/02/11 02:58:19;;;;;;;23.33;9.00;;;7.60;99.90;;;;;;5041660;28;20533;-70
2023/02/11 03:01:02;;;;;;;25.05;10.30;;;7.60;99.90;;;;;;5023752;28;20190;-70
2023/02/11 03:03:52;;;;;;;22.77;9.38;;;7.80;99.90;;;;;;5048800;28;20037;-70
2023/02/11 03:06:36;;;;;;;27.00;9.55;;;7.70;99.90;;;;;;5043500;28;20061;-70
2023/02/11 03:09:13;;;;;;;21.42;9.38;;;7.70;99.90;;;;;;5046409;28;20025;-70
2023/02/11 03:11:39;;;;;;;21.60;9.70;;;7.70;99.90;;;;;;5038005;28;20064;-70
2023/02/11 03:14:10;;;;;;;23.23;9.88;;;7.70;99.90;;;;;;5042976;28;20060;-70
2023/02/11 03:16:38;;;;;;;31.30;10.55;;;7.70;99.90;;;;;;5043151;28;20044;-70
2023/02/11 03:19:34;;;;;;;25.80;10.85;;;7.70;99.90;;;;;;5048122;28;20445;-70
2023/02/11 03:22:04;;;;;;;37.22;11.13;;;7.70;99.90;;;;;;5052819;28;20016;-70
2023/02/11 03:24:35;;;;;;;26.83;10.75;;;7.70;99.90;;;;;;5043990;28;20043;-70
2023/02/11 03:27:09;;;;;;;22.20;10.63;;;7.70;99.90;;;;;;5040767;28;20025;-70
2023/02/11 03:29:42;;;;;;;27.52;11.57;;;7.80;99.90;;;;;;5043608;28;20064;-70
2023/02/11 03:32:26;;;;;;;26.08;10.25;;;7.70;99.90;;;;;;5042947;28;20025;-70
2023/02/11 03:35:07;;;;;;;20.73;10.85;;;7.70;99.90;;;;;;5050152;28;20087;-70
2023/02/11 03:37:47;;;;;;;28.20;10.70;;;7.70;99.90;;;;;;5043184;28;20095;-70
2023/02/11 03:40:17;;;;;;;27.38;11.05;;;7.80;99.90;;;;;;5049751;28;20500;-70
2023/02/11 03:42:55;;;;;;;31.30;10.50;;;7.80;99.90;;;;;;5046895;28;20021;-70
2023/02/11 03:45:23;;;;;;;26.38;9.48;;;7.80;99.90;;;;;;5047140;28;20029;-69
2023/02/11 03:48:03;;;;;;;25.95;9.88;;;7.80;99.90;;;;;;5041087;28;20017;-70
2023/02/11 03:50:32;;;;;;;27.52;11.00;;;7.80;99.90;;;;;;5045842;28;20036;-70
2023/02/11 03:53:00;;;;;;;24.38;10.88;;;7.90;99.90;;;;;;5046248;28;20489;-70
2023/02/11 03:55:28;;;;;;;27.67;10.98;;;7.80;99.90;;;;;;5050801;28;20062;-70
2023/02/11 03:57:55;;;;;;;22.67;10.38;;;7.90;99.90;;;;;;5047463;28;20062;-70
2023/02/11 04:00:20;;;;;;;24.33;10.88;;;7.80;99.90;;;;;;5040068;28;20017;-70
2023/02/11 04:02:46;;;;;;;21.10;9.75;;;7.90;99.90;;;;;;5043732;28;20033;-70
2023/02/11 04:05:14;;;;;;;24.90;10.05;;;7.90;99.90;;;;;;5042319;28;20121;-70
2023/02/11 04:07:40;;;;;;;19.85;10.25;;;7.80;99.90;;;;;;5040801;28;20108;-70
2023/02/11 04:10:07;;;;;;;22.38;10.50;;;7.90;99.90;;;;;;5041028;28;20217;-70
2023/02/11 04:12:32;;;;;;;27.25;11.40;;;7.90;99.90;;;;;;5045560;28;20118;-70
2023/02/11 04:14:58;;;;;;;25.10;10.55;;;7.90;99.90;;;;;;5040789;28;20328;-70
2023/02/11 04:17:24;;;;;;;28.30;10.80;;;7.90;99.90;;;;;;5041322;28;20295;-70
2023/02/11 04:19:49;;;;;;;29.42;11.68;;;7.90;99.90;;;;;;5049009;28;20381;-70
2023/02/11 04:22:15;;;;;;;27.67;11.73;;;8.00;99.90;;;;;;5041710;28;20033;-69
2023/02/11 04:24:42;;;;;;;24.40;11.88;;;8.00;99.90;;;;;;5042197;28;20529;-70
2023/02/11 04:27:08;;;;;;;29.73;11.35;;;8.00;99.90;;;;;;5042392;28;20080;-70
2023/02/11 04:29:34;;;;;;;29.45;10.68;;;7.90;99.90;;;;;;5046306;28;20029;-70
2023/02/11 04:31:59;;;;;;;24.17;10.80;;;8.00;99.90;;;;;;5044957;28;20492;-70
2023/02/11 04:34:25;;;;;;;29.92;11.93;;;8.00;99.90;;;;;;5035790;28;20493;-70
2023/02/11 04:36:51;;;;;;;20.20;10.75;;;8.00;99.90;;;;;;5043389;28;20478;-70
2023/02/11 04:39:16;;;;;;;25.88;11.27;;;7.90;99.90;;;;;;5043718;28;20037;-70
2023/02/11 04:41:42;;;;;;;23.33;11.30;;;7.90;99.90;;;;;;5039138;28;20028;-70
2023/02/11 04:44:07;;;;;;;23.90;11.40;;;8.00;99.90;;;;;;5046932;28;20059;-70
2023/02/11 04:46:33;;;;;;;31.65;11.93;;;7.90;99.90;;;;;;5041977;28;20465;-70
2023/02/11 04:48:59;;;;;;;24.42;10.63;;;8.00;99.90;;;;;;5042319;28;20024;-70
2023/02/11 04:51:24;;;;;;;32.05;11.52;;;8.00;99.90;;;;;;5044893;28;20371;-70
2023/02/11 04:53:50;;;;;;;25.42;11.63;;;8.00;99.90;;;;;;5035041;28;20029;-70
2023/02/11 04:56:16;;;;;;;27.20;12.50;;;8.00;99.90;;;;;;5045030;28;20043;-70
2023/02/11 04:58:41;;;;;;;25.60;12.40;;;8.00;99.90;;;;;;5055318;28;20028;-70
2023/02/11 05:01:09;;;;;;;25.98;10.45;;;8.00;99.90;;;;;;5046869;28;20014;-70
2023/02/11 05:03:35;;;;;;;28.73;12.15;;;7.90;99.90;;;;;;5052166;28;20436;-70
2023/02/11 05:06:01;;;;;;;26.08;11.80;;;7.90;99.90;;;;;;5049332;28;20018;-70
2023/02/11 05:08:26;;;;;;;24.65;10.98;;;7.90;99.90;;;;;;5040673;28;20031;-70
2023/02/11 05:10:52;;;;;;;28.42;11.80;;;7.90;99.90;;;;;;5045812;28;20056;-69
2023/02/11 05:13:18;;;;;;;33.75;13.60;;;7.90;99.90;;;;;;5052422;28;20381;-70
2023/02/11 05:15:43;;;;;;;30.10;12.38;;;7.90;99.90;;;;;;5043853;28;20099;-70
2023/02/11 05:18:09;;;;;;;34.72;12.18;;;7.90;99.90;;;;;;5040674;28;20041;-70
2023/02/11 05:20:37;;;;;;;25.30;13.43;;;7.90;99.90;;;;;;5038891;28;20026;-70
2023/02/11 05:23:03;;;;;;;29.27;13.50;;;7.90;99.90;;;;;;5038623;28;20021;-70
2023/02/11 05:25:29;;;;;;;33.15;13.38;;;8.00;99.90;;;;;;5043054;28;20398;-70
2023/02/11 05:27:54;;;;;;;23.80;11.25;;;8.00;99.90;;;;;;5047403;28;20036;-71
2023/02/11 05:30:20;;;;;;;30.40;13.27;;;7.90;99.90;;;;;;5042759;28;20018;-70
2023/02/11 05:32:45;;;;;;;29.15;12.00;;;8.00;99.90;;;;;;5051014;28;20167;-70
2023/02/11 05:35:11;;;;;;;34.45;13.32;;;8.10;99.90;;;;;;5048419;28;20495;-70
2023/02/11 05:37:37;;;;;;;27.33;12.88;;;8.00;99.90;;;;;;5053730;28;20044;-70
2023/02/11 05:40:03;;;;;;;30.73;13.05;;;8.00;99.90;;;;;;5046011;28;20020;-70
2023/02/11 05:42:29;;;;;;;34.75;12.18;;;8.00;99.90;;;;;;5044364;28;20037;-70
2023/02/11 05:44:54;;;;;;;31.58;15.10;;;8.10;99.90;;;;;;5041284;28;20021;-70
2023/02/11 05:47:20;;;;;;;27.73;12.57;;;8.10;99.90;;;;;;5049056;28;20056;-70
2023/02/11 05:49:45;;;;;;;31.85;14.18;;;8.00;99.90;;;;;;5051336;28;20099;-69
2023/02/11 05:52:11;;;;;;;29.27;14.40;;;8.10;99.90;;;;;;5051063;28;20021;-70
2023/02/11 05:54:37;;;;;;;36.53;13.63;;;8.10;99.90;;;;;;5038465;28;20025;-70
2023/02/11 05:57:02;;;;;;;32.60;13.77;;;8.10;99.90;;;;;;5046363;28;20033;-70
2023/02/11 05:59:28;;;;;;;36.17;13.93;;;8.10;99.90;;;;;;5051067;28;20111;-70
2023/02/11 06:01:54;;;;;;;33.22;13.93;;;8.00;99.90;;;;;;5047584;28;20449;-70
2023/02/11 06:04:19;;;;;;;37.42;14.70;;;8.00;99.90;;;;;;5048638;28;20024;-70
2023/02/11 06:06:45;;;;;;;29.85;14.38;;;8.00;99.90;;;;;;5048240;28;20116;-70
2023/02/11 06:09:10;;;;;;;31.38;13.63;;;8.10;99.90;;;;;;5043683;28;20169;-69
2023/02/11 06:11:36;;;;;;;34.40;15.43;;;8.10;99.90;;;;;;5045031;28;20025;-69
2023/02/11 06:14:02;;;;;;;31.05;13.10;;;8.10;99.90;;;;;;5053520;28;20056;-70
2023/02/11 06:16:28;;;;;;;36.88;15.88;;;8.10;99.90;;;;;;5048005;28;20052;-70
2023/02/11 06:18:53;;;;;;;34.13;13.90;;;8.00;99.90;;;;;;5052272;28;20037;-70
2023/02/11 06:21:19;;;;;;;32.45;15.60;;;8.00;99.90;;;;;;5042743;28;20017;-70
2023/02/11 06:23:45;;;;;;;38.45;17.00;;;8.10;99.90;;;;;;5045958;28;20115;-70
2023/02/11 06:26:17;;;;;;;29.35;15.85;;;8.10;99.90;;;;;;5048162;28;20022;-69
2023/02/11 06:28:43;;;;;;;;;;;8.10;99.90;;;;;;5043225;28;20105;-70
2023/02/11 06:31:10;;;;;;;36.92;16.23;;;8.10;99.90;;;;;;5046252;28;20008;-70
2023/02/11 06:33:36;;;;;;;41.00;18.75;;;8.20;99.90;;;;;;5043713;28;20474;-70
2023/02/11 06:36:03;;;;;;;38.50;17.10;;;8.20;99.90;;;;;;5043239;28;20026;-70
2023/02/11 06:38:28;;;;;;;38.17;17.90;;;8.10;99.90;;;;;;5051306;28;20052;-70
2023/02/11 06:40:54;;;;;;;35.17;17.20;;;8.10;99.90;;;;;;5046207;28;20320;-70
2023/02/11 06:43:19;;;;;;;39.72;18.02;;;8.20;99.90;;;;;;5039839;28;20136;-70
2023/02/11 06:45:52;;;;;;;35.85;17.45;;;8.10;99.90;;;;;;5041319;28;20076;-69
2023/02/11 06:48:17;;;;;;;39.85;18.63;;;8.10;99.90;;;;;;5047946;28;20032;-70
2023/02/11 06:50:43;;;;;;;40.95;19.77;;;8.10;99.90;;;;;;5044036;28;20363;-70
2023/02/11 06:53:09;;;;;;;34.40;18.77;;;8.00;99.90;;;;;;5042574;28;20025;-70
2023/02/11 06:55:34;;;;;;;36.55;18.63;;;8.10;99.90;;;;;;5043434;28;20029;-70
2023/02/11 06:58:00;;;;;;;46.05;19.50;;;8.20;99.90;;;;;;5043074;28;20132;-70
2023/02/11 07:00:27;;;;;;;44.03;19.85;;;8.10;99.90;;;;;;5046162;28;20504;-70
2023/02/11 07:02:53;;;;;;;45.85;20.35;;;8.10;99.90;;;;;;5039016;28;20031;-69
2023/02/11 07:05:19;;;;;;;38.83;18.52;;;8.20;99.90;;;;;;5044269;28;20036;-70
2023/02/11 07:07:45;;;;;;;43.60;19.50;;;8.10;99.90;;;;;;5038842;28;20524;-70
2023/02/11 07:10:10;;;;;;;49.00;21.60;;;8.20;99.90;;;;;;5038365;28;20114;-70
2023/02/11 07:12:36;;;;;;;45.20;21.55;;;8.20;99.90;;;;;;5043836;28;20036;-70
2023/02/11 07:15:02;;;;;;;47.80;22.38;;;8.20;99.90;;;;;;5046271;28;20036;-70
2023/02/11 07:17:28;;;;;;;55.13;23.70;;;8.20;99.90;;;;;;5039208;28;20072;-70
2023/02/11 07:19:53;;;;;;;44.33;22.23;;;8.20;99.90;;;;;;5046686;28;20594;-70
2023/02/11 07:22:19;;;;;;;51.50;22.60;;;8.20;99.90;;;;;;5043610;28;20382;-70
2023/02/11 07:24:45;;;;;;;52.03;22.83;;;8.20;99.90;;;;;;5045436;28;20036;-70
2023/02/11 07:27:11;;;;;;;52.95;22.90;;;8.30;99.90;;;;;;5043840;28;20025;-70
2023/02/11 07:29:36;;;;;;;55.08;25.58;;;8.30;99.90;;;;;;5043517;28;20670;-70
2023/02/11 07:32:02;;;;;;;52.65;24.42;;;8.30;99.90;;;;;;5048069;28;20487;-70
2023/02/11 07:34:27;;;;;;;51.17;22.70;;;8.30;99.90;;;;;;5049277;28;20493;-70
2023/02/11 07:36:53;;;;;;;56.92;24.58;;;8.30;99.90;;;;;;5044384;28;20087;-70
2023/02/11 07:39:20;;;;;;;57.83;25.85;;;8.30;99.90;;;;;;5040180;28;20064;-70
2023/02/11 07:41:47;;;;;;;50.83;23.55;;;8.30;99.90;;;;;;5038025;28;20119;-70
2023/02/11 07:44:13;;;;;;;64.72;26.50;;;8.30;99.90;;;;;;5044974;28;20025;-70
2023/02/11 07:46:43;;;;;;;65.97;27.55;;;8.30;99.90;;;;;;5045508;28;20106;-70
2023/02/11 07:49:09;;;;;;;60.75;27.60;;;8.30;99.90;;;;;;5039587;28;20044;-70
2023/02/11 07:51:35;;;;;;;68.82;27.23;;;8.30;99.90;;;;;;5036760;28;20482;-70
2023/02/11 07:54:01;;;;;;;68.10;28.05;;;8.30;99.90;;;;;;5036647;28;20036;-70
2023/02/11 07:56:27;;;;;;;73.57;27.92;;;8.40;99.90;;;;;;5044897;28;20156;-70
2023/02/11 07:58:55;;;;;;;77.28;30.92;;;8.30;99.90;;;;;;5042202;28;20041;-70
2023/02/11 08:01:25;;;;;;;77.70;29.83;;;8.40;99.90;;;;;;5042536;28;20088;-70
2023/02/11 08:03:52;;;;;;;71.32;29.90;;;8.30;99.90;;;;;;5046822;28;20068;-69
2023/02/11 08:06:19;;;;;;;78.05;33.60;;;8.30;99.90;;;;;;5038649;28;20048;-69
2023/02/11 08:08:46;;;;;;;78.57;32.25;;;8.40;99.90;;;;;;5042248;28;20722;-70
2023/02/11 08:11:14;;;;;;;76.97;31.63;;;8.50;99.90;;;;;;5049381;28;20520;-70
2023/02/11 08:13:40;;;;;;;87.80;35.80;;;8.40;99.90;;;;;;5046726;28;20039;-69
2023/02/11 08:16:07;;;;;;;80.32;35.63;;;8.40;99.90;;;;;;5037472;28;20030;-70
2023/02/11 08:18:32;;;;;;;88.90;34.78;;;8.50;99.90;;;;;;5042214;28;20045;-70
2023/02/11 08:21:06;;;;;;;85.22;32.75;;;8.50;99.90;;;;;;5036098;28;20031;-70
2023/02/11 08:23:35;;;;;;;80.57;34.50;;;8.50;99.90;;;;;;5040531;28;20064;-70
2023/02/11 08:26:10;;;;;;;77.95;32.50;;;8.50;99.90;;;;;;5039770;28;20028;-69
2023/02/11 08:28:37;;;;;;;84.38;34.28;;;8.50;99.90;;;;;;5042309;28;20044;-70
2023/02/11 08:31:22;;;;;;;99.07;35.75;;;8.50;99.90;;;;;;5038945;28;20049;-70
2023/02/11 08:33:48;;;;;;;91.63;35.97;;;8.50;99.90;;;;;;5043578;28;20439;-70
2023/02/11 08:36:27;;;;;;;86.47;35.33;;;8.60;99.90;;;;;;5046120;28;20036;-70
2023/02/11 08:38:58;;;;;;;89.25;34.88;;;8.60;99.90;;;;;;5044872;28;20128;-70
2023/02/11 08:41:24;;;;;;;94.70;36.70;;;8.60;99.90;;;;;;5046453;28;20021;-70
2023/02/11 08:43:50;;;;;;;96.88;37.42;;;8.60;99.90;;;;;;5050948;28;20033;-70
2023/02/11 08:46:18;;;;;;;99.85;38.40;;;8.60;99.90;;;;;;5038250;28;20063;-70
2023/02/11 08:48:45;;;;;;;101.40;39.05;;;8.60;99.90;;;;;;5045111;28;20032;-70
2023/02/11 08:51:15;;;;;;;104.90;39.08;;;8.60;99.90;;;;;;5048386;28;20516;-68
2023/02/11 08:53:41;;;;;;;100.18;37.55;;;8.60;99.90;;;;;;5042329;28;20017;-69
2023/02/11 08:56:09;;;;;;;108.05;42.78;;;8.60;99.90;;;;;;5045950;28;20025;-70
2023/02/11 08:58:34;;;;;;;101.68;40.38;;;8.60;99.90;;;;;;5041426;28;20067;-69
2023/02/11 09:01:00;;;;;;;100.45;39.67;;;8.60;99.90;;;;;;5046336;28;20474;-68
2023/02/11 09:03:26;;;;;;;104.68;39.03;;;8.70;99.90;;;;;;5043456;28;20033;-68
2023/02/11 09:05:51;;;;;;;105.13;39.70;;;8.70;99.90;;;;;;5046968;28;20045;-67
2023/02/11 09:08:18;;;;;;;92.55;37.83;;;8.70;99.90;;;;;;5042502;28;20030;-68
2023/02/11 09:10:45;;;;;;;108.47;40.10;;;8.90;99.90;;;;;;5043636;28;20025;-68
2023/02/11 09:13:10;;;;;;;105.07;40.85;;;8.80;99.90;;;;;;5045303;28;20033;-68
2023/02/11 09:15:36;;;;;;;99.07;38.35;;;8.80;99.90;;;;;;5044696;28;20033;-70
2023/02/11 09:18:02;;;;;;;106.80;40.88;;;8.80;99.90;;;;;;5047641;28;20025;-69
2023/02/11 09:20:28;;;;;;;103.50;39.90;;;8.90;99.90;;;;;;5040779;28;20024;-70
2023/02/11 09:22:55;;;;;;;106.65;39.75;;;8.90;99.90;;;;;;5045056;28;20028;-69
2023/02/11 09:25:21;;;;;;;102.55;39.50;;;8.80;99.90;;;;;;5042479;28;20497;-69
2023/02/11 09:27:46;;;;;;;108.35;39.30;;;8.80;99.90;;;;;;5043927;28;20033;-70
2023/02/11 09:30:12;;;;;;;97.60;40.13;;;8.90;99.90;;;;;;5042171;28;20021;-70
2023/02/11 09:32:38;;;;;;;98.75;38.20;;;8.90;99.90;;;;;;5043397;28;20036;-69
2023/02/11 09:35:04;;;;;;;96.45;37.72;;;9.00;99.90;;;;;;5049928;28;20068;-70
2023/02/11 09:37:29;;;;;;;98.78;40.30;;;9.00;99.90;;;;;;5045273;28;20029;-68
2023/02/11 09:39:55;;;;;;;108.35;41.92;;;9.10;99.90;;;;;;5049790;28;20028;-70
2023/02/11 09:42:55;;;;;;;100.63;40.13;;;9.10;99.90;;;;;;5041627;28;20025;-68
2023/02/11 09:45:25;;;;;;;100.35;39.85;;;9.00;99.90;;;;;;5045015;28;20025;-68
2023/02/11 09:47:58;;;;;;;114.15;41.35;;;9.00;99.90;;;;;;5019168;28;20764;-69
2023/02/11 09:50:41;;;;;;;104.70;39.50;;;9.00;99.90;;;;;;5035306;28;20034;-68
2023/02/11 09:53:15;;;;;;;105.72;42.00;;;8.90;99.90;;;;;;5033104;28;20083;-71
2023/02/11 09:55:46;;;;;;;107.38;41.28;;;9.00;99.90;;;;;;5032707;28;20413;-68
2023/02/11 09:58:20;;;;;;;97.00;40.45;;;9.10;99.90;;;;;;5033483;28;20029;-67
2023/02/11 10:00:56;;;;;;;90.13;37.83;;;9.10;99.90;;;;;;5033522;28;20029;-70
2023/02/11 10:03:38;;;;;;;93.03;40.72;;;9.10;99.90;;;;;;5037673;28;20488;-68
2023/02/11 10:06:04;;;;;;;118.85;44.67;;;9.20;99.90;;;;;;5035728;28;20021;-68
2023/02/11 10:08:40;;;;;;;95.35;39.45;;;9.20;99.90;;;;;;5036314;28;20512;-69
2023/02/11 10:11:14;;;;;;;101.22;42.88;;;9.20;99.90;;;;;;5039732;28;20029;-69
2023/02/11 10:14:09;;;;;;;114.25;41.72;;;9.20;99.90;;;;;;5038330;28;20054;-68
2023/02/11 10:16:57;;;;;;;117.65;42.10;;;9.30;99.90;;;;;;5037483;28;20025;-70
2023/02/11 10:19:53;;;;;;;118.10;42.17;;;9.30;99.90;;;;;;5031586;28;20037;-68
2023/02/11 10:22:44;;;;;;;103.18;40.47;;;9.20;99.90;;;;;;5036205;28;20070;-71
2023/02/11 10:25:16;;;;;;;124.78;42.67;;;9.30;99.90;;;;;;5032532;28;20037;-69
2023/02/11 10:27:42;;;;;;;113.23;40.77;;;9.30;99.90;;;;;;5035069;28;20023;-70
2023/02/11 10:30:17;;;;;;;109.93;42.00;;;9.30;99.90;;;;;;5033787;28;20284;-70
2023/02/11 10:32:50;;;;;;;115.88;42.90;;;9.40;99.90;;;;;;5032953;28;20026;-71
2023/02/11 10:35:20;;;;;;;104.15;43.10;;;9.40;99.90;;;;;;5034795;28;20029;-70
2023/02/11 10:37:46;;;;;;;110.93;42.88;;;9.40;99.90;;;;;;5039199;28;20040;-69
2023/02/11 10:40:22;;;;;;;116.68;45.67;;;9.50;99.90;;;;;;5036960;28;20029;-69
2023/02/11 10:43:01;;;;;;;113.75;43.80;;;9.50;99.90;;;;;;5034824;28;20044;-69
2023/02/11 10:45:40;;;;;;;117.65;42.42;;;9.60;99.90;;;;;;5036095;28;20552;-68
2023/02/11 10:48:38;;;;;;;114.47;42.78;;;9.60;99.90;;;;;;5034654;28;20151;-69
2023/02/11 10:51:10;;;;;;;104.75;43.13;;;9.60;99.90;;;;;;5033558;28;20033;-69
2023/02/11 10:53:36;;;;;;;115.40;43.60;;;9.60;99.90;;;;;;5035414;28;20052;-68
2023/02/11 10:56:02;;;;;;;112.13;42.50;;;9.70;99.90;;;;;;5033097;28;20079;-68
2023/02/11 10:58:41;;;;;;;103.60;41.53;;;9.70;99.90;;;;;;5032615;28;20073;-71
2023/02/11 11:01:07;;;;;;;111.70;43.50;;;9.70;99.90;;;;;;5034993;28;20029;-68
2023/02/11 11:03:39;;;;;;;113.85;43.67;;;9.70;99.90;;;;;;5035435;28;20790;-68
2023/02/11 11:06:08;;;;;;;107.53;44.13;;;9.80;99.90;;;;;;5038056;28;20021;-67
2023/02/11 11:08:50;;;;;;;107.80;44.00;;;9.70;99.90;;;;;;5038236;28;20813;-69
2023/02/11 11:11:24;;;;;;;114.85;48.88;;;9.80;99.90;;;;;;5034258;28;20022;-68
2023/02/11 11:13:57;;;;;;;110.95;45.10;;;9.80;99.90;;;;;;5037773;28;20136;-67
2023/02/11 11:16:28;;;;;;;101.15;44.72;;;9.80;99.90;;;;;;5034795;28;20071;-69
2023/02/11 11:19:20;;;;;;;104.70;43.55;;;9.80;99.90;;;;;;5034203;28;20037;-71
2023/02/11 11:21:51;;;;;;;111.20;45.20;;;9.80;99.90;;;;;;5036023;28;20040;-68
2023/02/11 11:24:33;;;;;;;98.63;44.25;;;9.80;99.90;;;;;;5033350;28;20052;-68
2023/02/11 11:27:01;;;;;;;108.97;45.20;;;9.80;99.90;;;;;;5036812;28;20021;-68
2023/02/11 11:29:43;;;;;;;108.20;45.45;;;9.90;99.90;;;;;;5036575;28;20028;-68
2023/02/11 11:32:19;;;;;;;106.95;43.60;;;9.90;99.90;;;;;;5029002;28;20401;-69
2023/02/11 11:34:58;;;;;;;95.70;40.63;;;9.90;99.90;;;;;;5034864;28;20173;-67
2023/02/11 11:37:35;;;;;;;104.68;44.22;;;9.90;99.90;;;;;;5031404;28;20030;-70
2023/02/11 11:40:21;;;;;;;102.70;42.90;;;9.90;99.90;;;;;;5034418;28;20053;-67
2023/02/11 11:43:12;;;;;;;97.88;42.47;;;10.00;99.90;;;;;;5036115;28;20378;-69
2023/02/11 11:45:50;;;;;;;104.38;43.85;;;9.90;99.90;;;;;;5039031;28;20071;-69
2023/02/11 11:48:46;;;;;;;109.35;45.53;;;10.00;99.90;;;;;;5028675;28;20112;-71
2023/02/11 11:51:12;;;;;;;102.72;44.10;;;10.10;99.90;;;;;;5031921;28;20095;-70
2023/02/11 11:53:59;;;;;;;105.43;44.65;;;10.20;99.90;;;;;;5029962;28;20170;-69
2023/02/11 11:56:31;;;;;;;109.90;44.88;;;10.20;99.90;;;;;;5033847;28;20020;-70
2023/02/11 11:59:01;;;;;;;98.13;42.38;;;10.20;99.90;;;;;;5030649;28;20046;-70
2023/02/11 12:02:17;;;;;;;103.55;44.00;;;10.20;99.90;;;;;;5036773;28;20139;-70
2023/02/11 12:05:00;;;;;;;99.10;42.80;;;10.20;99.90;;;;;;5009272;28;20030;-68
2023/02/11 12:07:40;;;;;;;104.05;43.67;;;10.20;99.90;;;;;;5035625;28;20100;-68
2023/02/11 12:10:24;;;;;;;95.05;43.00;;;10.30;99.90;;;;;;5031805;28;20025;-68
2023/02/11 12:13:27;;;;;;;93.55;43.97;;;10.30;99.90;;;;;;5037287;28;20101;-68
2023/02/11 12:16:09;;;;;;;93.75;44.45;;;10.30;99.90;;;;;;5032375;28;20024;-68
2023/02/11 12:19:12;;;;;;;95.97;44.28;;;10.30;99.90;;;;;;5034311;28;20067;-68
2023/02/11 12:21:44;;;;;;;;;;;10.40;99.90;;;;;;5033211;28;20025;-69
2023/02/11 12:24:28;;;;;;;90.82;41.72;;;10.30;99.90;;;;;;5031185;28;19909;-68
2023/02/11 12:27:12;;;;;;;95.53;43.50;;;10.40;99.90;;;;;;5035466;28;20082;-68
2023/02/11 12:29:56;;;;;;;95.45;43.47;;;10.30;99.90;;;;;;5033198;28;20026;-69
2023/02/11 12:32:55;;;;;;;101.78;46.63;;;10.30;99.90;;;;;;5033715;28;20041;-68
2023/02/11 12:35:35;;;;;;;97.60;42.88;;;10.40;99.90;;;;;;5028505;28;20095;-68
2023/02/11 12:38:30;;;;;;;93.20;41.10;;;10.40;99.90;;;;;;5031836;28;20033;-68
2023/02/11 12:41:15;;;;;;;96.25;41.13;;;10.40;99.90;;;;;;5028185;28;20046;-68
2023/02/11 12:43:43;;;;;;;96.88;44.90;;;10.40;99.90;;;;;;5032975;28;20033;-68
2023/02/11 12:46:26;;;;;;;86.93;41.03;;;10.30;99.90;;;;;;5030850;28;20045;-70
2023/02/11 12:49:15;;;;;;;92.63;41.47;;;10.40;99.90;;;;;;5033273;28;20030;-70
2023/02/11 12:52:08;;;;;;;100.38;42.78;;;10.40;99.90;;;;;;5031810;28;20037;-70
2023/02/11 12:55:03;;;;;;;92.75;42.30;;;10.40;99.90;;;;;;5030128;28;20014;-69
2023/02/11 12:57:33;;;;;;;94.40;43.90;;;10.40;99.90;;;;;;5025540;28;20143;-69
2023/02/11 13:00:06;;;;;;;91.07;42.95;;;10.40;99.90;;;;;;5031077;28;20026;-70